createdAt,value
2023-05-10T00:00:07.130Z,38.24
2023-05-10T00:02:41.786Z,38.30
2023-05-10T00:05:10.333Z,38.22
2023-05-10T00:07:38.283Z,38.33
2023-05-10T00:10:06.523Z,39.34
2023-05-10T00:12:34.490Z,38.66
2023-05-10T00:15:03.980Z,37.15
2023-05-10T00:17:34.827Z,37.30
2023-05-10T00:20:02.959Z,38.81
2023-05-10T00:22:32.906Z,37.49
2023-05-10T00:25:01.052Z,37.82
2023-05-10T00:27:29.277Z,37.58
2023-05-10T00:29:57.104Z,38.33
2023-05-10T00:32:24.960Z,37.67
2023-05-10T00:34:53.229Z,36.93
2023-05-10T00:37:21.080Z,37.16
2023-05-10T00:39:48.904Z,36.71
2023-05-10T00:42:16.796Z,36.90
2023-05-10T00:44:47.839Z,36.33
2023-05-10T00:47:17.149Z,35.79
2023-05-10T00:49:45.319Z,36.14
2023-05-10T00:52:13.104Z,36.16
2023-05-10T00:54:41.006Z,36.04
2023-05-10T00:57:08.902Z,36.50
2023-05-10T00:59:36.790Z,36.54
2023-05-10T01:02:05.056Z,36.70
2023-05-10T01:04:33.056Z,37.62
2023-05-10T01:07:00.995Z,36.03
2023-05-10T01:09:29.062Z,35.76
2023-05-10T01:11:57.854Z,35.44
2023-05-10T01:14:26.880Z,36.23
2023-05-10T01:16:55.397Z,35.51
2023-05-10T01:19:26.666Z,34.78
2023-05-10T01:22:24.182Z,34.93
2023-05-10T01:24:58.171Z,35.38
2023-05-10T01:27:25.901Z,36.17
2023-05-10T01:30:15.846Z,35.58
2023-05-10T01:32:56.505Z,35.93
2023-05-10T01:35:28.221Z,35.40
2023-05-10T01:38:17.234Z,35.87
2023-05-10T01:41:19.361Z,35.49
2023-05-10T01:43:59.079Z,36.01
2023-05-10T01:46:38.177Z,36.81
2023-05-10T01:49:15.504Z,36.01
2023-05-10T01:51:49.429Z,36.13
2023-05-10T01:54:19.114Z,36.86
2023-05-10T01:56:49.465Z,37.62
2023-05-10T01:59:19.749Z,37.97
2023-05-10T02:01:48.788Z,36.21
2023-05-10T02:04:18.855Z,36.20
2023-05-10T02:06:49.546Z,36.03
2023-05-10T02:09:17.930Z,35.94
2023-05-10T02:11:45.678Z,36.79
2023-05-10T02:14:14.290Z,37.00
2023-05-10T02:16:42.781Z,37.64
2023-05-10T02:19:12.543Z,38.94
2023-05-10T02:22:01.057Z,38.10
2023-05-10T02:24:29.576Z,37.98
2023-05-10T02:26:57.595Z,38.46
2023-05-10T02:29:26.956Z,37.22
2023-05-10T02:31:56.591Z,36.93
2023-05-10T02:34:27.141Z,36.75
2023-05-10T02:36:56.452Z,37.54
2023-05-10T02:39:25.841Z,37.21
2023-05-10T02:41:53.810Z,36.84
2023-05-10T02:44:21.972Z,37.46
2023-05-10T02:46:49.778Z,36.90
2023-05-10T02:49:17.964Z,36.97
2023-05-10T02:51:50.593Z,37.24
2023-05-10T02:54:24.354Z,38.08
2023-05-10T02:56:56.038Z,38.19
2023-05-10T02:59:23.827Z,38.41
2023-05-10T03:01:51.717Z,38.32
2023-05-10T03:04:20.042Z,37.37
2023-05-10T03:06:48.163Z,38.02
2023-05-10T03:09:16.807Z,38.39
2023-05-10T03:11:50.619Z,36.64
2023-05-10T03:14:21.461Z,36.20
2023-05-10T03:17:16.695Z,34.98
2023-05-10T03:19:52.063Z,37.03
2023-05-10T03:22:29.130Z,37.49
2023-05-10T03:25:01.705Z,37.81
2023-05-10T03:27:41.495Z,37.35
2023-05-10T03:30:10.547Z,38.78
2023-05-10T03:32:38.928Z,38.30
2023-05-10T03:35:15.365Z,37.68
2023-05-10T03:37:43.464Z,37.06
2023-05-10T03:40:11.740Z,37.83
2023-05-10T03:42:42.511Z,37.88
2023-05-10T03:45:10.860Z,37.06
2023-05-10T03:47:38.681Z,37.83
2023-05-10T03:50:07.459Z,37.34
2023-05-10T03:52:35.430Z,36.63
2023-05-10T03:55:04.771Z,37.00
2023-05-10T03:57:32.680Z,38.25
2023-05-10T04:00:01.559Z,36.82
2023-05-10T04:02:34.080Z,37.54
2023-05-10T04:05:02.397Z,37.12
2023-05-10T04:07:31.070Z,37.26
2023-05-10T04:09:58.991Z,37.93
2023-05-10T04:12:26.824Z,36.72
2023-05-10T04:14:54.856Z,38.35
2023-05-10T04:17:22.729Z,37.56
2023-05-10T04:19:50.709Z,35.86
2023-05-10T04:22:18.682Z,35.28
2023-05-10T04:24:46.577Z,36.09
2023-05-10T04:27:14.383Z,35.42
2023-05-10T04:29:46.933Z,35.81
2023-05-10T04:32:14.719Z,35.43
2023-05-10T04:34:42.536Z,35.59
2023-05-10T04:37:10.505Z,35.72
2023-05-10T04:39:40.225Z,33.75
2023-05-10T04:42:09.538Z,33.74
2023-05-10T04:44:37.514Z,35.14
2023-05-10T04:47:05.775Z,34.93
2023-05-10T04:49:33.562Z,34.33
2023-05-10T04:52:01.320Z,34.88
2023-05-10T04:54:29.312Z,34.49
2023-05-10T04:56:57.152Z,34.57
2023-05-10T04:59:24.928Z,34.70
2023-05-10T05:01:52.858Z,34.27
2023-05-10T05:04:24.630Z,34.00
2023-05-10T05:06:53.923Z,34.19
2023-05-10T05:09:22.046Z,33.83
2023-05-10T05:11:50.087Z,33.09
2023-05-10T05:14:17.859Z,33.56
2023-05-10T05:16:45.686Z,33.27
2023-05-10T05:19:13.479Z,32.80
2023-05-10T05:21:41.239Z,31.74
2023-05-10T05:24:10.063Z,30.40
2023-05-10T05:26:38.009Z,27.43
2023-05-10T05:29:05.875Z,29.08
2023-05-10T05:31:33.805Z,29.42
2023-05-10T05:34:01.602Z,28.43
2023-05-10T05:36:29.565Z,28.61
2023-05-10T05:38:57.329Z,27.82
2023-05-10T05:41:25.810Z,28.00
2023-05-10T05:43:53.964Z,26.51
2023-05-10T05:46:21.808Z,27.17
2023-05-10T05:48:49.714Z,26.65
2023-05-10T05:51:17.494Z,26.62
2023-05-10T05:53:45.442Z,25.46
2023-05-10T05:56:13.267Z,25.60
2023-05-10T05:58:41.163Z,25.70
2023-05-10T06:01:10.103Z,24.93
2023-05-10T06:03:38.012Z,25.83
2023-05-10T06:06:06.077Z,25.07
2023-05-10T06:08:35.024Z,25.05
2023-05-10T06:11:03.258Z,24.17
2023-05-10T06:13:33.691Z,24.63
2023-05-10T06:16:02.562Z,24.03
2023-05-10T06:18:30.382Z,24.68
2023-05-10T06:20:58.646Z,24.26
2023-05-10T06:23:26.635Z,24.67
2023-05-10T06:25:54.640Z,24.88
2023-05-10T06:28:22.521Z,23.87
2023-05-10T06:30:52.849Z,24.38
2023-05-10T06:33:20.746Z,23.73
2023-05-10T06:35:48.499Z,23.12
2023-05-10T06:38:16.346Z,23.26
2023-05-10T06:40:44.564Z,23.47
2023-05-10T06:43:13.648Z,23.87
2023-05-10T06:45:42.151Z,21.91
2023-05-10T06:48:10.270Z,22.36
2023-05-10T06:50:38.239Z,22.86
2023-05-10T06:53:06.222Z,22.20
2023-05-10T06:55:34.514Z,23.48
2023-05-10T06:58:02.320Z,22.89
2023-05-10T07:00:30.193Z,23.45
2023-05-10T07:02:58.084Z,22.64
2023-05-10T07:05:26.049Z,22.71
2023-05-10T07:07:53.904Z,22.96
2023-05-10T07:10:21.848Z,23.41
2023-05-10T07:12:49.802Z,22.71
2023-05-10T07:15:18.439Z,21.20
2023-05-10T07:17:46.759Z,21.22
2023-05-10T07:20:14.712Z,20.79
2023-05-10T07:22:44.606Z,21.40
2023-05-10T07:25:12.452Z,20.68
2023-05-10T07:27:40.194Z,21.53
2023-05-10T07:30:08.755Z,21.93
2023-05-10T07:32:36.748Z,22.21
2023-05-10T07:35:04.872Z,21.74
2023-05-10T07:37:32.736Z,20.89
2023-05-10T07:40:03.180Z,21.23
2023-05-10T07:42:32.870Z,19.81
2023-05-10T07:45:02.995Z,21.11
2023-05-10T07:47:52.440Z,18.75
2023-05-10T07:50:20.442Z,19.56
2023-05-10T07:52:49.261Z,20.75
2023-05-10T07:55:17.299Z,19.18
2023-05-10T07:57:45.240Z,20.27
2023-05-10T08:00:14.756Z,20.11
2023-05-10T08:02:43.100Z,20.13
2023-05-10T08:05:11.710Z,20.44
2023-05-10T08:07:39.545Z,21.37
2023-05-10T08:10:08.375Z,21.75
2023-05-10T08:12:36.333Z,21.89
2023-05-10T08:15:04.741Z,21.44
2023-05-10T08:17:33.644Z,21.85
2023-05-10T08:20:01.520Z,21.17
2023-05-10T08:22:32.065Z,20.80
2023-05-10T08:24:59.821Z,20.91
2023-05-10T08:27:27.604Z,21.66
2023-05-10T08:29:55.432Z,21.46
2023-05-10T08:32:23.258Z,22.06
2023-05-10T08:34:51.137Z,22.10
2023-05-10T08:37:19.126Z,20.03
2023-05-10T08:39:49.071Z,20.23
2023-05-10T08:42:21.880Z,20.34
2023-05-10T08:44:49.885Z,22.38
2023-05-10T08:47:19.523Z,21.80
2023-05-10T08:49:50.206Z,21.17
2023-05-10T08:52:19.190Z,21.59
2023-05-10T08:54:49.051Z,22.01
2023-05-10T08:57:16.971Z,20.88
2023-05-10T08:59:45.239Z,22.06
2023-05-10T09:02:16.085Z,21.05
2023-05-10T09:04:45.857Z,21.57
2023-05-10T09:07:13.756Z,21.47
2023-05-10T09:09:41.712Z,20.37
2023-05-10T09:12:12.271Z,20.61
2023-05-10T09:14:40.337Z,19.55
2023-05-10T09:17:08.422Z,20.49
2023-05-10T09:19:37.441Z,19.82
2023-05-10T09:22:08.194Z,19.80
2023-05-10T09:24:36.252Z,20.24
2023-05-10T09:27:04.298Z,21.12
2023-05-10T09:29:42.922Z,20.79
2023-05-10T09:32:10.898Z,21.40
2023-05-10T09:34:41.279Z,22.13
2023-05-10T09:37:09.407Z,21.56
2023-05-10T09:39:42.382Z,21.25
2023-05-10T09:42:10.555Z,20.95
2023-05-10T09:44:39.331Z,20.78
2023-05-10T09:47:07.320Z,20.08
2023-05-10T09:49:36.152Z,20.42
2023-05-10T09:52:05.500Z,20.88
2023-05-10T09:54:33.883Z,20.75
2023-05-10T09:57:02.416Z,20.42
2023-05-10T09:59:30.667Z,19.89
2023-05-10T10:01:59.501Z,20.43
2023-05-10T10:04:30.908Z,20.31
2023-05-10T10:07:05.664Z,20.16
2023-05-10T10:09:36.413Z,19.71
2023-05-10T10:12:04.969Z,20.64
2023-05-10T10:14:32.950Z,20.30
2023-05-10T10:17:07.240Z,21.41
2023-05-10T10:19:39.259Z,20.95
2023-05-10T10:22:07.399Z,21.47
2023-05-10T10:24:35.363Z,20.90
2023-05-10T10:27:15.375Z,20.79
2023-05-10T10:30:00.018Z,21.87
2023-05-10T10:33:13.588Z,21.26
2023-05-10T10:35:48.851Z,21.34
2023-05-10T10:38:17.671Z,23.03
2023-05-10T10:40:45.515Z,20.80
2023-05-10T10:43:27.123Z,20.15
2023-05-10T10:46:15.173Z,20.41
2023-05-10T10:48:49.010Z,20.72
2023-05-10T10:51:16.840Z,21.25
2023-05-10T10:53:45.242Z,21.13
2023-05-10T10:56:16.327Z,20.75
2023-05-10T10:58:55.925Z,21.23
2023-05-10T11:01:23.762Z,21.01
2023-05-10T11:04:06.836Z,21.22
2023-05-10T11:06:36.212Z,20.99
2023-05-10T11:09:12.558Z,21.09
2023-05-10T11:11:56.340Z,21.03
2023-05-10T11:14:24.584Z,21.31
2023-05-10T11:16:52.759Z,21.08
2023-05-10T11:19:21.199Z,21.28
2023-05-10T11:21:55.404Z,22.20
2023-05-10T11:24:26.919Z,21.99
2023-05-10T11:26:55.094Z,21.04
2023-05-10T11:29:23.381Z,20.49
2023-05-10T11:31:51.965Z,20.47
2023-05-10T11:34:27.872Z,21.07
2023-05-10T11:36:57.388Z,21.11
2023-05-10T11:39:29.227Z,21.17
2023-05-10T11:41:58.221Z,22.12
2023-05-10T11:44:33.626Z,22.37
2023-05-10T11:47:04.575Z,21.94
2023-05-10T11:49:32.541Z,21.60
2023-05-10T11:52:12.114Z,21.08
2023-05-10T11:54:54.936Z,21.38
2023-05-10T11:57:27.890Z,20.30
2023-05-10T11:59:58.310Z,20.98
2023-05-10T12:02:26.661Z,21.25
2023-05-10T12:04:54.545Z,21.63
2023-05-10T12:07:24.469Z,21.64
2023-05-10T12:10:09.109Z,21.61
2023-05-10T12:12:48.535Z,21.74
2023-05-10T12:15:22.995Z,21.95
2023-05-10T12:17:51.643Z,22.09
2023-05-10T12:20:23.336Z,21.52
2023-05-10T12:23:00.493Z,21.20
2023-05-10T12:25:36.554Z,21.59
2023-05-10T12:28:06.705Z,22.16
2023-05-10T12:30:36.134Z,21.76
2023-05-10T12:33:08.940Z,21.39
2023-05-10T12:35:48.061Z,21.02
2023-05-10T12:38:35.982Z,21.88
2023-05-10T12:41:14.186Z,21.25
2023-05-10T12:43:42.623Z,21.29
2023-05-10T12:46:12.383Z,21.75
2023-05-10T12:48:41.455Z,21.28
2023-05-10T12:51:10.684Z,21.46
2023-05-10T12:53:41.531Z,21.78
2023-05-10T12:56:11.264Z,22.00
2023-05-10T12:58:39.606Z,22.29
2023-05-10T13:01:07.564Z,22.20
2023-05-10T13:03:35.604Z,21.98
2023-05-10T13:06:03.786Z,21.91
2023-05-10T13:08:34.650Z,22.36
2023-05-10T13:11:03.389Z,22.39
2023-05-10T13:13:31.247Z,22.65
2023-05-10T13:15:59.226Z,23.33
2023-05-10T13:18:27.678Z,22.99
2023-05-10T13:20:56.855Z,22.62
2023-05-10T13:23:27.917Z,21.97
2023-05-10T13:25:56.914Z,23.86
2023-05-10T13:28:46.456Z,22.68
2023-05-10T13:31:14.677Z,22.86
2023-05-10T13:33:42.477Z,22.75
2023-05-10T13:36:18.258Z,22.62
2023-05-10T13:38:46.085Z,22.79
2023-05-10T13:41:23.129Z,22.95
2023-05-10T13:43:54.630Z,23.47
2023-05-10T13:46:22.477Z,23.71
2023-05-10T13:48:50.505Z,24.09
2023-05-10T13:51:18.288Z,24.06
2023-05-10T13:53:48.068Z,24.60
2023-05-10T13:56:17.489Z,24.76
2023-05-10T13:58:45.398Z,24.96
2023-05-10T14:01:13.429Z,24.97
2023-05-10T14:03:41.379Z,25.12
2023-05-10T14:06:09.524Z,25.06
2023-05-10T14:08:37.685Z,24.92
2023-05-10T14:11:05.596Z,24.91
2023-05-10T14:13:34.007Z,24.77
2023-05-10T14:16:02.242Z,24.81
2023-05-10T14:18:30.373Z,24.84
2023-05-10T14:20:58.195Z,24.80
2023-05-10T14:23:26.883Z,24.70
2023-05-10T14:25:54.775Z,24.40
2023-05-10T14:28:23.829Z,24.69
2023-05-10T14:30:52.043Z,24.65
2023-05-10T14:33:20.354Z,24.76
2023-05-10T14:35:48.947Z,25.28
2023-05-10T14:38:16.728Z,24.94
2023-05-10T14:40:44.706Z,24.86
2023-05-10T14:43:12.651Z,25.11
2023-05-10T14:45:43.496Z,24.86
2023-05-10T14:48:16.593Z,25.48
2023-05-10T14:50:46.182Z,25.54
2023-05-10T14:53:13.980Z,25.40
2023-05-10T14:55:42.052Z,25.30
2023-05-10T14:58:10.052Z,25.91
2023-05-10T15:00:37.947Z,25.52
2023-05-10T15:03:06.333Z,25.72
2023-05-10T15:05:34.915Z,25.52
2023-05-10T15:08:03.182Z,25.39
2023-05-10T15:10:33.167Z,25.53
2023-05-10T15:13:02.654Z,25.61
2023-05-10T15:15:30.650Z,25.48
2023-05-10T15:17:58.563Z,25.56
2023-05-10T15:20:29.036Z,25.99
2023-05-10T15:22:59.438Z,25.64
2023-05-10T15:25:30.058Z,25.94
2023-05-10T15:27:58.119Z,25.98
2023-05-10T15:30:28.554Z,26.08
2023-05-10T15:32:58.095Z,26.75
2023-05-10T15:35:27.444Z,26.75
2023-05-10T15:37:55.423Z,26.53
2023-05-10T15:40:24.081Z,26.69
2023-05-10T15:42:52.382Z,26.79
2023-05-10T15:45:20.485Z,26.67
2023-05-10T15:47:49.154Z,26.75
2023-05-10T15:50:17.804Z,26.77
2023-05-10T15:52:45.947Z,26.77
2023-05-10T15:55:16.521Z,26.79
2023-05-10T15:57:44.806Z,27.29
2023-05-10T16:00:13.609Z,27.38
2023-05-10T16:02:42.579Z,27.00
2023-05-10T16:05:11.083Z,27.33
2023-05-10T16:07:39.900Z,27.34
2023-05-10T16:10:10.288Z,27.57
2023-05-10T16:12:38.878Z,27.69
2023-05-10T16:15:07.499Z,27.33
2023-05-10T16:17:35.554Z,27.43
2023-05-10T16:20:03.595Z,27.51
2023-05-10T16:22:31.888Z,27.65
2023-05-10T16:24:59.746Z,28.01
2023-05-10T16:27:30.290Z,27.90
2023-05-10T16:29:58.194Z,28.03
2023-05-10T16:32:26.331Z,28.09
2023-05-10T16:34:54.181Z,27.99
2023-05-10T16:37:22.031Z,27.83
2023-05-10T16:39:49.853Z,28.13
2023-05-10T16:42:17.702Z,28.45
2023-05-10T16:44:45.603Z,28.30
2023-05-10T16:47:13.513Z,28.15
2023-05-10T16:49:43.650Z,28.21
2023-05-10T16:52:11.609Z,28.39
2023-05-10T16:54:39.441Z,28.47
2023-05-10T16:57:08.712Z,28.78
2023-05-10T16:59:36.547Z,28.36
2023-05-10T17:02:04.454Z,28.80
2023-05-10T17:04:32.298Z,28.44
2023-05-10T17:07:00.081Z,28.63
2023-05-10T17:09:28.086Z,28.57
2023-05-10T17:11:55.910Z,28.72
2023-05-10T17:14:23.699Z,28.66
2023-05-10T17:16:53.228Z,28.93
2023-05-10T17:19:23.032Z,29.06
2023-05-10T17:21:52.072Z,29.03
2023-05-10T17:24:20.006Z,28.86
2023-05-10T17:26:47.897Z,29.23
2023-05-10T17:29:18.201Z,29.23
2023-05-10T17:31:46.051Z,28.90
2023-05-10T17:34:13.948Z,29.16
2023-05-10T17:36:41.732Z,28.97
2023-05-10T17:39:09.871Z,29.14
2023-05-10T17:41:37.956Z,29.00
2023-05-10T17:44:05.733Z,29.15
2023-05-10T17:46:33.821Z,29.70
2023-05-10T17:49:01.538Z,30.05
2023-05-10T17:51:29.662Z,29.65
2023-05-10T17:53:57.473Z,29.32
2023-05-10T17:56:25.671Z,29.68
2023-05-10T17:58:53.420Z,29.62
2023-05-10T18:01:21.366Z,29.77
2023-05-10T18:03:49.902Z,29.87
2023-05-10T18:06:17.989Z,29.92
2023-05-10T18:08:45.864Z,30.09
2023-05-10T18:11:16.486Z,30.03
2023-05-10T18:13:44.380Z,29.86
2023-05-10T18:16:13.664Z,30.28
2023-05-10T18:18:41.700Z,30.24
2023-05-10T18:21:11.953Z,30.46
2023-05-10T18:23:39.865Z,30.43
2023-05-10T18:26:08.468Z,30.57
2023-05-10T18:28:37.167Z,30.70
2023-05-10T18:31:05.183Z,31.04
2023-05-10T18:33:33.239Z,30.78
2023-05-10T18:36:04.371Z,31.08
2023-05-10T18:38:32.408Z,31.18
2023-05-10T18:41:03.873Z,31.23
2023-05-10T18:43:34.578Z,31.25
2023-05-10T18:46:02.566Z,31.44
2023-05-10T18:48:30.390Z,31.65
2023-05-10T18:50:58.217Z,31.64
2023-05-10T18:53:26.032Z,31.83
2023-05-10T18:56:00.128Z,31.64
2023-05-10T18:58:28.875Z,31.78
2023-05-10T19:00:57.128Z,32.41
2023-05-10T19:03:24.978Z,32.28
2023-05-10T19:05:52.769Z,32.51
2023-05-10T19:08:20.867Z,32.56
2023-05-10T19:10:48.790Z,32.77
2023-05-10T19:13:16.590Z,32.75
2023-05-10T19:15:48.956Z,32.82
2023-05-10T19:18:17.739Z,32.65
2023-05-10T19:20:46.866Z,32.49
2023-05-10T19:23:16.208Z,32.46
2023-05-10T19:25:45.678Z,33.85
2023-05-10T19:28:14.883Z,33.31
2023-05-10T19:30:49.849Z,33.87
2023-05-10T19:33:18.705Z,33.78
2023-05-10T19:35:46.821Z,33.81
2023-05-10T19:38:14.812Z,34.27
2023-05-10T19:40:42.816Z,34.88
2023-05-10T19:43:10.978Z,33.89
2023-05-10T19:45:41.649Z,34.24
2023-05-10T19:48:11.075Z,34.01
2023-05-10T19:50:39.520Z,33.94
2023-05-10T19:53:08.134Z,33.75
2023-05-10T19:55:38.897Z,34.54
2023-05-10T19:58:06.791Z,34.21
2023-05-10T20:00:35.957Z,34.46
2023-05-10T20:03:08.442Z,35.22
2023-05-10T20:05:37.397Z,35.82
2023-05-10T20:08:05.252Z,35.24
2023-05-10T20:10:33.176Z,35.59
2023-05-10T20:13:01.052Z,35.25
2023-05-10T20:15:30.070Z,34.88
2023-05-10T20:17:58.089Z,34.72
2023-05-10T20:20:26.122Z,35.13
2023-05-10T20:22:53.879Z,34.90
2023-05-10T20:25:23.377Z,35.14
2023-05-10T20:27:54.858Z,35.51
2023-05-10T20:30:31.877Z,35.81
2023-05-10T20:33:04.625Z,35.30
2023-05-10T20:35:36.023Z,35.98
2023-05-10T20:38:04.337Z,35.36
2023-05-10T20:40:32.930Z,35.75
2023-05-10T20:43:00.892Z,35.68
2023-05-10T20:45:28.843Z,36.10
2023-05-10T20:47:57.236Z,35.83
2023-05-10T20:50:25.122Z,36.09
2023-05-10T20:52:53.056Z,35.71
2023-05-10T20:55:21.032Z,36.33
2023-05-10T20:57:50.190Z,36.50
2023-05-10T21:00:18.574Z,35.87
2023-05-10T21:02:46.791Z,35.76
2023-05-10T21:05:17.869Z,35.39
2023-05-10T21:07:49.648Z,35.56
2023-05-10T21:10:28.449Z,35.07
2023-05-10T21:12:56.910Z,34.98
2023-05-10T21:15:25.748Z,34.84
2023-05-10T21:17:59.239Z,34.85
2023-05-10T21:20:27.261Z,34.95
2023-05-10T21:22:55.259Z,34.71
2023-05-10T21:25:25.781Z,34.99
2023-05-10T21:27:53.550Z,34.92
2023-05-10T21:30:21.317Z,35.27
2023-05-10T21:32:49.238Z,34.95
2023-05-10T21:35:17.150Z,35.83
2023-05-10T21:37:44.955Z,36.60
2023-05-10T21:40:13.214Z,36.69
2023-05-10T21:42:41.048Z,37.48
2023-05-10T21:45:09.131Z,37.03
2023-05-10T21:47:37.371Z,38.19
2023-05-10T21:50:05.626Z,38.52
2023-05-10T21:52:33.727Z,38.59
2023-05-10T21:55:01.511Z,38.49
2023-05-10T21:57:30.023Z,38.86
2023-05-10T21:59:57.924Z,38.87
2023-05-10T22:02:25.966Z,39.17
2023-05-10T22:04:53.846Z,38.85
2023-05-10T22:07:21.744Z,38.88
2023-05-10T22:09:49.571Z,37.98
2023-05-10T22:12:17.399Z,38.17
2023-05-10T22:14:45.205Z,38.84
2023-05-10T22:17:13.201Z,39.11
2023-05-10T22:19:45.642Z,38.64
2023-05-10T22:22:13.497Z,39.27
2023-05-10T22:24:41.652Z,39.10
2023-05-10T22:27:09.474Z,38.71
2023-05-10T22:29:37.409Z,39.28
2023-05-10T22:32:06.546Z,39.51
2023-05-10T22:34:35.935Z,40.25
2023-05-10T22:37:04.168Z,39.98
2023-05-10T22:39:31.959Z,40.78
2023-05-10T22:41:59.753Z,40.32
2023-05-10T22:44:27.872Z,40.59
2023-05-10T22:46:55.731Z,40.81
2023-05-10T22:49:23.704Z,40.73
2023-05-10T22:51:51.581Z,39.71
2023-05-10T22:54:19.439Z,39.99
2023-05-10T22:56:47.247Z,40.71
2023-05-10T22:59:15.064Z,40.53
2023-05-10T23:01:43.045Z,40.44
2023-05-10T23:04:10.973Z,40.66
2023-05-10T23:06:39.745Z,41.94
2023-05-10T23:09:07.522Z,41.21
2023-05-10T23:11:35.417Z,40.16
2023-05-10T23:14:03.338Z,39.74
2023-05-10T23:16:31.525Z,39.62
2023-05-10T23:18:59.516Z,40.83
2023-05-10T23:21:28.772Z,40.15
2023-05-10T23:23:57.744Z,40.80
2023-05-10T23:26:25.753Z,41.12
2023-05-10T23:28:53.581Z,39.58
2023-05-10T23:31:21.680Z,40.06
2023-05-10T23:33:49.404Z,40.28
2023-05-10T23:36:17.210Z,40.32
2023-05-10T23:38:45.041Z,40.51
2023-05-10T23:41:13.035Z,41.77
2023-05-10T23:43:40.795Z,40.88
2023-05-10T23:46:08.631Z,40.87
2023-05-10T23:48:36.506Z,41.43
2023-05-10T23:51:04.492Z,40.90
2023-05-10T23:53:32.291Z,42.04
2023-05-10T23:56:00.115Z,42.68
2023-05-10T23:58:27.923Z,42.15
